Time;durP1;ratioP1;P1;durP2;ratioP2;P2;SDS_P1;SDS_P2;PMS_P1;PMS_P2;Temp;Humidity;BMP_temperature;BMP_pressure;BME280_temperature;BME280_humidity;BME280_pressure;Samples;Min_cycle;Max_cycle;Signal;HPM_P1;HPM_P2
2021/06/22 00:00:09;;;;;;;;;0.00;0.00;;;;;20.66;53.55;100419.16;5122297;27;45278;-63
2021/06/22 00:02:34;;;;;;;;;0.00;0.00;;;;;20.68;53.75;100413.63;5122129;27;45554;-63
2021/06/22 00:04:59;;;;;;;;;0.00;0.00;;;;;20.73;53.67;100418.41;5114531;27;46259;-64
2021/06/22 00:07:25;;;;;;;;;0.00;0.00;;;;;20.76;53.25;100415.34;5116063;27;45229;-63
2021/06/22 00:09:50;;;;;;;;;0.00;0.00;;;;;20.79;53.73;100417.63;5103594;27;46143;-64
2021/06/22 00:12:15;;;;;;;;;0.00;0.00;;;;;20.81;53.49;100418.25;5121211;27;45381;-63
2021/06/22 00:14:42;;;;;;;;;0.00;0.00;;;;;20.85;53.71;100423.00;5108391;27;45312;-63
2021/06/22 00:17:07;;;;;;;;;0.00;0.00;;;;;20.89;53.28;100424.28;5121754;27;45241;-64
2021/06/22 00:19:32;;;;;;;;;0.00;0.00;;;;;20.92;53.45;100431.06;5103200;27;45202;-64
2021/06/22 00:21:58;;;;;;;;;0.00;0.00;;;;;21.01;53.54;100434.41;5103434;27;45301;-64
2021/06/22 00:24:23;;;;;;;;;0.00;0.00;;;;;21.06;53.18;100434.66;5121985;27;45312;-63
2021/06/22 00:26:48;;;;;;;;;0.00;0.00;;;;;21.09;52.85;100435.06;5121943;27;45214;-64
2021/06/22 00:29:16;;;;;;;;;0.00;0.00;;;;;21.15;53.18;100440.69;5121875;27;45327;-63
2021/06/22 00:31:41;;;;;;;;;0.00;0.00;;;;;21.15;53.90;100438.00;5122175;27;45280;-63
2021/06/22 00:34:06;;;;;;;;;0.00;0.00;;;;;21.15;53.82;100428.16;5121969;27;46441;-63
2021/06/22 00:36:32;;;;;;;;;0.00;0.00;;;;;21.13;54.00;100435.53;5121890;27;45335;-63
2021/06/22 00:38:57;;;;;;;;;0.00;0.00;;;;;21.12;54.56;100436.53;5122271;27;45292;-63
2021/06/22 00:41:22;;;;;;;;;0.00;0.00;;;;;21.09;54.18;100429.75;5121838;27;45370;-64
2021/06/22 00:43:48;;;;;;;;;0.00;0.00;;;;;21.06;53.96;100432.81;5121386;27;56057;-64
2021/06/22 00:46:13;;;;;;;;;0.00;0.00;;;;;21.05;54.80;100430.34;5121677;27;45285;-63
2021/06/22 00:48:39;;;;;;;;;0.00;0.00;;;;;21.05;53.89;100435.66;5125106;27;45238;-63
2021/06/22 00:51:04;;;;;;;;;0.00;0.00;;;;;21.04;55.07;100439.38;5125536;27;45599;-63
2021/06/22 00:53:30;;;;;;;;;0.00;0.00;;;;;21.03;54.37;100433.19;5124856;27;46416;-64
2021/06/22 00:55:55;;;;;;;;;0.00;0.00;;;;;21.04;55.43;100440.19;5124530;27;45217;-63
2021/06/22 00:58:21;;;;;;;;;0.00;0.00;;;;;21.04;55.42;100432.19;5125068;27;45325;-62
2021/06/22 01:00:47;;;;;;;;;0.00;0.00;;;;;21.01;56.20;100431.75;5125239;27;45405;-63
2021/06/22 01:03:13;;;;;;;;;0.00;0.00;;;;;20.96;55.36;100423.50;5124612;27;46322;-63
2021/06/22 01:05:38;;;;;;;;;0.00;0.00;;;;;20.93;55.67;100431.88;5111894;27;45243;-63
2021/06/22 01:08:04;;;;;;;;;0.00;0.00;;;;;20.94;55.85;100438.88;5104530;27;45160;-63
2021/06/22 01:10:29;;;;;;;;;0.00;0.00;;;;;20.98;55.91;100435.63;5117539;27;45235;-63
2021/06/22 01:12:55;;;;;;;;;0.00;0.00;;;;;21.00;55.59;100433.59;5118263;27;45548;-64
2021/06/22 01:15:23;;;;;;;;;0.00;0.00;;;;;21.02;55.78;100428.06;5117012;27;45483;-63
2021/06/22 01:17:57;;;;;;;;;0.00;0.00;;;;;21.01;56.13;100434.41;5124790;27;45344;-62
2021/06/22 01:20:23;;;;;;;;;0.00;0.00;;;;;21.01;56.12;100423.72;5125149;27;45359;-63
2021/06/22 01:22:50;;;;;;;;;0.00;0.00;;;;;20.98;56.12;100429.47;5124582;27;45453;-63
2021/06/22 01:25:16;;;;;;;;;0.00;0.00;;;;;20.93;55.90;100423.88;5124080;27;45209;-63
2021/06/22 01:27:42;;;;;;;;;0.00;0.00;;;;;20.87;55.94;100431.66;5124872;27;45245;-63
2021/06/22 01:30:08;;;;;;;;;0.00;0.00;;;;;20.81;58.39;100437.75;5124907;27;45387;-64
2021/06/22 01:32:34;;;;;;;;;0.00;0.00;;;;;20.73;57.29;100426.41;5124230;27;46838;-62
2021/06/22 01:35:00;;;;;;;;;0.00;0.00;;;;;20.69;57.59;100421.47;5124311;27;45480;-63
2021/06/22 01:37:25;;;;;;;;;0.00;0.00;;;;;20.70;58.95;100411.59;5124724;27;45307;-62
2021/06/22 01:39:51;;;;;;;;;0.00;0.00;;;;;20.67;59.44;100418.16;5124528;27;45453;-63
2021/06/22 01:42:17;;;;;;;;;0.00;0.00;;;;;20.64;58.73;100415.84;5124272;27;45391;-63
2021/06/22 01:44:46;;;;;;;;;0.00;0.00;;;;;20.61;58.71;100408.25;5105657;27;45291;-63
2021/06/22 01:47:11;;;;;;;;;0.00;0.00;;;;;20.57;58.67;100409.66;5124537;27;45373;-63
2021/06/22 01:49:37;;;;;;;;;0.00;0.00;;;;;20.58;60.05;100410.47;5105807;27;45268;-63
2021/06/22 01:52:02;;;;;;;;;0.00;0.00;;;;;20.55;58.49;100406.31;5124279;27;45690;-63
2021/06/22 01:54:28;;;;;;;;;0.00;0.00;;;;;20.53;60.77;100400.34;5124266;27;45254;-62
2021/06/22 01:56:53;;;;;;;;;0.00;0.00;;;;;20.54;58.94;100402.00;5124236;27;45288;-62
2021/06/22 01:59:18;;;;;;;;;0.00;0.00;;;;;20.54;58.63;100406.50;5123600;27;45334;-62
2021/06/22 02:01:44;;;;;;;;;0.00;0.00;;;;;20.55;60.53;100405.50;5124153;27;46372;-62
2021/06/22 02:04:11;;;;;;;;;0.00;0.00;;;;;20.55;60.01;100400.16;5104881;27;45267;-62
2021/06/22 02:06:37;;;;;;;;;0.00;0.00;;;;;20.58;60.20;100399.78;5111002;27;45369;-63
2021/06/22 02:09:04;;;;;;;;;0.00;0.00;;;;;20.54;61.26;100404.69;5105805;27;45401;-63
2021/06/22 02:11:29;;;;;;;;;0.00;0.00;;;;;20.46;62.17;100399.47;5123688;27;45424;-62
2021/06/22 02:13:55;;;;;;;;;0.00;0.00;;;;;20.40;61.07;100403.72;5110086;27;45365;-63
2021/06/22 02:16:20;;;;;;;;;0.00;0.00;;;;;20.38;61.03;100413.75;5124126;27;45259;-63
2021/06/22 02:18:45;;;;;;;;;0.00;0.00;;;;;20.39;60.88;100419.91;5124170;27;45431;-63
2021/06/22 02:21:12;;;;;;;;;0.00;0.00;;;;;20.40;61.12;100425.06;5123742;27;46210;-63
2021/06/22 02:23:38;;;;;;;;;0.00;0.00;;;;;20.40;59.90;100427.72;5123765;27;45230;-62
2021/06/22 02:26:04;;;;;;;;;0.00;0.00;;;;;20.38;61.81;100429.75;5123535;27;45459;-63
2021/06/22 02:28:30;;;;;;;;;0.00;0.00;;;;;20.34;61.56;100430.34;5123865;27;45459;-62
2021/06/22 02:30:56;;;;;;;;;0.00;0.00;;;;;20.35;62.32;100426.66;5123552;27;46138;-63
2021/06/22 02:33:22;;;;;;;;;0.00;0.00;;;;;20.35;62.15;100419.50;5123489;27;45412;-63
2021/06/22 02:35:47;;;;;;;;;0.00;0.00;;;;;20.37;62.29;100419.31;5123699;27;45362;-63
2021/06/22 02:38:14;;;;;;;;;0.00;0.00;;;;;20.39;61.69;100420.75;5123559;27;45264;-62
2021/06/22 02:40:39;;;;;;;;;0.00;0.00;;;;;20.40;62.07;100425.06;5123150;27;45369;-63
2021/06/22 02:43:05;;;;;;;;;0.00;0.00;;;;;20.40;61.52;100419.72;5123245;27;45291;-63
2021/06/22 02:45:33;;;;;;;;;0.00;0.00;;;;;20.41;61.97;100426.72;5123814;27;45299;-63
2021/06/22 02:47:59;;;;;;;;;0.00;0.00;;;;;20.43;61.95;100421.19;5123580;27;45245;-63
2021/06/22 02:50:24;;;;;;;;;0.00;0.00;;;;;20.49;61.71;100420.41;5123780;27;46223;-63
2021/06/22 02:52:49;;;;;;;;;0.00;0.00;;;;;20.55;61.69;100434.84;5123124;27;45259;-63
2021/06/22 02:55:19;;;;;;;;;0.00;0.00;;;;;20.48;63.20;100437.47;5123242;27;45305;-63
2021/06/22 02:57:49;;;;;;;;;0.00;0.00;;;;;20.35;62.78;100432.81;5123408;27;45373;-63
2021/06/22 03:00:17;;;;;;;;;0.00;0.00;;;;;20.22;62.65;100430.84;5123343;27;46352;-64
2021/06/22 03:02:42;;;;;;;;;0.00;0.00;;;;;20.21;63.07;100437.19;5123203;27;45328;-63
2021/06/22 03:05:09;;;;;;;;;0.00;0.00;;;;;20.18;63.56;100434.09;5112948;27;45350;-64
2021/06/22 03:07:35;;;;;;;;;0.00;0.00;;;;;20.12;64.58;100440.16;5120227;27;45454;-63
2021/06/22 03:10:00;;;;;;;;;0.00;0.00;;;;;20.10;64.62;100440.34;5122051;27;45333;-63
2021/06/22 03:12:25;;;;;;;;;0.00;0.00;;;;;20.09;64.23;100436.06;5119672;27;45230;-63
2021/06/22 03:14:50;;;;;;;;;0.00;0.00;;;;;20.02;64.07;100435.97;5112563;27;45165;-63
2021/06/22 03:17:16;;;;;;;;;0.00;0.00;;;;;19.98;65.21;100432.03;5123378;27;45384;-63
2021/06/22 03:19:41;;;;;;;;;0.00;0.00;;;;;19.91;64.66;100423.13;5123220;27;45287;-64
2021/06/22 03:22:06;;;;;;;;;0.00;0.00;;;;;19.86;65.15;100429.00;5123138;27;45232;-62
2021/06/22 03:24:32;;;;;;;;;0.00;0.00;;;;;19.82;64.15;100433.06;5123322;27;45318;-62
2021/06/22 03:26:57;;;;;;;;;0.00;0.00;;;;;19.77;64.38;100429.31;5122961;27;45239;-62
2021/06/22 03:29:24;;;;;;;;;0.00;0.00;;;;;19.76;65.07;100414.34;5122851;27;46606;-64
2021/06/22 03:31:50;;;;;;;;;0.00;0.00;;;;;19.76;65.05;100423.19;5122802;27;45368;-63
2021/06/22 03:34:15;;;;;;;;;0.00;0.00;;;;;19.76;64.98;100431.16;5122997;27;45491;-63
2021/06/22 03:36:40;;;;;;;;;0.00;0.00;;;;;19.77;64.86;100432.00;5123229;27;45301;-63
2021/06/22 03:39:09;;;;;;;;;0.00;0.00;;;;;19.75;66.71;100436.69;5122977;27;45337;-63
2021/06/22 03:41:35;;;;;;;;;0.00;0.00;;;;;19.75;65.67;100444.69;5122601;27;45454;-62
2021/06/22 03:44:00;;;;;;;;;0.00;0.00;;;;;19.71;65.77;100441.53;5122738;27;45234;-62
2021/06/22 03:46:26;;;;;;;;;0.00;0.00;;;;;19.72;65.54;100445.88;5123171;27;45238;-62
2021/06/22 03:48:51;;;;;;;;;0.00;0.00;;;;;19.69;65.38;100446.19;5122688;27;45302;-63
2021/06/22 03:51:17;;;;;;;;;0.00;0.00;;;;;19.66;65.42;100441.25;5122825;27;45261;-63
2021/06/22 03:53:42;;;;;;;;;0.00;0.00;;;;;19.67;64.99;100435.75;5122624;27;45409;-63
2021/06/22 03:56:09;;;;;;;;;0.00;0.00;;;;;19.75;65.52;100442.81;5122413;27;45513;-62
2021/06/22 03:58:34;;;;;;;;;0.00;0.00;;;;;19.73;64.94;100444.03;5122367;27;45718;-63
2021/06/22 04:01:00;;;;;;;;;0.00;0.00;;;;;19.77;64.56;100455.97;5122614;27;46444;-63
2021/06/22 04:03:26;;;;;;;;;0.00;0.00;;;;;19.75;65.57;100448.16;5122442;27;45429;-63
2021/06/22 04:05:51;;;;;;;;;0.00;0.00;;;;;19.76;64.99;100446.31;5107287;27;45349;-63
2021/06/22 04:08:17;;;;;;;;;0.00;0.00;;;;;19.74;65.61;100449.19;5110317;27;45667;-63
2021/06/22 04:10:42;;;;;;;;;0.00;0.00;;;;;19.70;65.92;100449.72;5122318;27;45499;-64
2021/06/22 04:13:08;;;;;;;;;0.00;0.00;;;;;19.60;67.45;100461.47;5101783;27;45475;-63
2021/06/22 04:15:34;;;;;;;;;0.00;0.00;;;;;19.58;65.83;100463.47;5102034;27;45374;-64
2021/06/22 04:18:01;;;;;;;;;0.00;0.00;;;;;19.50;67.77;100468.09;5110007;27;46108;-63
2021/06/22 04:20:26;;;;;;;;;0.00;0.00;;;;;19.45;67.28;100465.97;5122338;27;45223;-63
2021/06/22 04:22:52;;;;;;;;;0.00;0.00;;;;;19.43;66.78;100482.13;5125717;27;45371;-64
2021/06/22 04:25:17;;;;;;;;;0.00;0.00;;;;;19.50;66.23;100481.41;5125827;27;45585;-63
2021/06/22 04:27:43;;;;;;;;;0.00;0.00;;;;;19.55;66.95;100487.03;5125884;27;46379;-64
2021/06/22 04:30:09;;;;;;;;;0.00;0.00;;;;;19.59;66.75;100490.94;5125838;27;45300;-63
2021/06/22 04:32:34;;;;;;;;;3.25;1.00;;;;;19.60;66.65;100479.28;5125745;27;45221;-63
2021/06/22 04:34:59;;;;;;;;;0.00;0.00;;;;;19.65;66.58;100487.53;5126119;27;45329;-62
2021/06/22 04:37:25;;;;;;;;;0.00;0.00;;;;;19.65;66.73;100482.22;5125530;27;45315;-63
2021/06/22 04:39:50;;;;;;;;;0.00;0.00;;;;;19.66;66.97;100475.91;5125115;27;45777;-63
2021/06/22 04:42:16;;;;;;;;;0.00;0.00;;;;;19.65;66.88;100488.41;5125632;27;45451;-62
2021/06/22 04:44:42;;;;;;;;;0.00;0.00;;;;;19.73;66.12;100489.34;5125704;27;45354;-63
2021/06/22 04:47:07;;;;;;;;;0.00;0.00;;;;;19.82;66.44;100489.03;5125474;27;45316;-63
2021/06/22 04:49:32;;;;;;;;;0.00;0.00;;;;;19.86;66.88;100489.50;5125229;27;45340;-62
2021/06/22 04:51:58;;;;;;;;;0.00;0.00;;;;;19.87;67.03;100489.31;5125575;27;45339;-62
2021/06/22 04:54:24;;;;;;;;;0.00;0.00;;;;;19.88;66.04;100484.81;5125288;27;45357;-63
2021/06/22 04:56:50;;;;;;;;;0.00;0.00;;;;;19.98;66.02;100492.53;5106329;27;47067;-63
2021/06/22 04:59:16;;;;;;;;;0.00;0.00;;;;;20.01;65.91;100489.47;5124812;27;45188;-62
2021/06/22 05:01:41;;;;;;;;;0.00;0.00;;;;;20.00;66.64;100491.31;5125081;27;45525;-63
2021/06/22 05:04:07;;;;;;;;;0.00;0.00;;;;;19.98;66.44;100497.84;5124253;27;45372;-62
2021/06/22 05:06:32;;;;;;;;;0.00;0.00;;;;;19.96;66.59;100492.72;5104302;27;45545;-62
2021/06/22 05:08:57;;;;;;;;;0.00;0.00;;;;;19.94;66.87;100491.25;5118663;27;45247;-62
2021/06/22 05:11:23;;;;;;;;;0.00;0.00;;;;;19.89;66.70;100489.09;5124832;27;45369;-63
2021/06/22 05:13:48;;;;;;;;;0.00;0.00;;;;;19.90;67.32;100487.28;5110877;27;45381;-63
2021/06/22 05:16:15;;;;;;;;;0.00;0.00;;;;;19.90;66.53;100496.09;5124651;27;45241;-63
2021/06/22 05:18:40;;;;;;;;;0.00;0.00;;;;;19.91;66.73;100489.75;5124715;27;45325;-63
2021/06/22 05:21:05;;;;;;;;;0.00;0.00;;;;;19.95;67.15;100490.22;5125013;27;45795;-64
2021/06/22 05:23:31;;;;;;;;;0.00;0.00;;;;;19.96;66.33;100489.22;5106272;27;45579;-62
2021/06/22 05:25:56;;;;;;;;;0.00;0.00;;;;;19.92;67.36;100480.75;5124491;27;45315;-62
2021/06/22 05:28:22;;;;;;;;;0.00;0.00;;;;;19.93;67.21;100493.06;5105843;27;45411;-62
2021/06/22 05:30:47;;;;;;;;;0.00;0.00;;;;;19.94;66.70;100492.06;5124657;27;45385;-62
2021/06/22 05:33:12;;;;;;;;;0.00;0.00;;;;;19.94;67.21;100494.72;5124020;27;45392;-63
2021/06/22 05:35:39;;;;;;;;;0.00;0.00;;;;;19.98;66.87;100493.34;5124195;27;46225;-63
2021/06/22 05:38:04;;;;;;;;;0.00;0.00;;;;;20.09;66.88;100494.72;5124645;27;45270;-62
2021/06/22 05:40:29;;;;;;;;;0.00;0.00;;;;;20.13;67.14;100500.47;5123989;27;45716;-63
2021/06/22 05:42:55;;;;;;;;;0.00;0.00;;;;;20.16;66.78;100503.59;5124102;27;45472;-63
2021/06/22 05:45:21;;;;;;;;;0.00;0.00;;;;;20.21;66.28;100503.84;5123947;27;45359;-64
2021/06/22 05:47:46;;;;;;;;;0.00;0.00;;;;;20.31;65.90;100502.75;5123796;27;45354;-63
2021/06/22 05:50:12;;;;;;;;;0.00;0.00;;;;;20.43;65.66;100509.22;5123976;27;45302;-63
2021/06/22 05:52:38;;;;;;;;;0.00;0.00;;;;;20.52;65.69;100517.91;5123999;27;45579;-62
2021/06/22 05:55:16;;;;;;;;;0.00;0.00;;;;;20.58;65.89;100522.53;5123708;27;45435;-63
2021/06/22 05:57:42;;;;;;;;;0.00;0.00;;;;;20.61;65.71;100525.66;5123693;27;45446;-63
2021/06/22 06:00:11;;;;;;;;;0.00;0.00;;;;;20.54;65.36;100522.06;5124003;27;45342;-64
2021/06/22 06:02:36;;;;;;;;;0.00;0.00;;;;;20.58;65.86;100523.38;5124105;27;45548;-63
2021/06/22 06:05:01;;;;;;;;;0.00;0.00;;;;;20.72;65.57;100523.50;5115662;27;45494;-63
2021/06/22 06:07:27;;;;;;;;;0.00;0.00;;;;;20.75;64.70;100517.78;5118156;27;45223;-64
2021/06/22 06:09:52;;;;;;;;;0.00;0.00;;;;;20.69;64.93;100527.34;5123977;27;45298;-64
2021/06/22 06:12:17;;;;;;;;;0.00;0.00;;;;;20.70;65.23;100526.34;5122677;27;45391;-63
2021/06/22 06:14:43;;;;;;;;;0.00;0.00;;;;;20.79;64.67;100530.53;5110761;27;46063;-63
2021/06/22 06:17:09;;;;;;;;;0.00;0.00;;;;;20.93;65.21;100539.50;5123208;27;45283;-64
2021/06/22 06:19:34;;;;;;;;;0.00;0.00;;;;;20.94;64.51;100535.00;5123506;27;45379;-63
2021/06/22 06:21:59;;;;;;;;;0.00;0.00;;;;;20.98;64.80;100529.06;5123705;27;45357;-63
2021/06/22 06:24:25;;;;;;;;;0.00;0.00;;;;;21.02;64.07;100540.22;5123676;27;45585;-64
2021/06/22 06:29:30;;;;;;;;;0.00;0.00;;;;;21.04;64.74;100551.53;5123395;27;45278;-63
2021/06/22 06:31:56;;;;;;;;;0.00;0.00;;;;;20.99;63.88;100552.09;5122994;27;45338;-64
2021/06/22 06:34:21;;;;;;;;;0.00;0.00;;;;;20.98;64.66;100549.63;5122845;27;46053;-64
2021/06/22 06:36:47;;;;;;;;;0.00;0.00;;;;;21.07;64.73;100546.59;5122779;27;45210;-63
2021/06/22 06:39:13;;;;;;;;;0.00;0.00;;;;;21.14;64.00;100552.00;5123123;27;45167;-64
2021/06/22 06:41:38;;;;;;;;;0.00;0.00;;;;;21.24;63.76;100549.81;5122590;27;45221;-64
2021/06/22 06:44:03;;;;;;;;;0.00;0.00;;;;;21.28;63.47;100547.59;5102789;27;46445;-64
2021/06/22 06:46:29;;;;;;;;;0.00;0.00;;;;;21.24;63.76;100549.00;5121300;27;45176;-65
2021/06/22 06:48:54;;;;;;;;;0.00;0.00;;;;;21.19;63.48;100551.44;5103844;27;45278;-65
2021/06/22 06:51:19;;;;;;;;;0.00;0.00;;;;;21.13;63.84;100555.69;5122738;27;45320;-64
2021/06/22 06:53:45;;;;;;;;;0.00;0.00;;;;;21.13;63.42;100558.38;5122562;27;45684;-64
2021/06/22 06:56:10;;;;;;;;;0.00;0.00;;;;;21.09;63.46;100554.44;5122500;27;45462;-64
2021/06/22 06:58:35;;;;;;;;;0.00;0.00;;;;;21.11;63.47;100557.72;5122380;27;45408;-66
2021/06/22 07:01:01;;;;;;;;;0.00;0.00;;;;;21.10;63.58;100561.41;5122898;27;45453;-65
2021/06/22 07:03:26;;;;;;;;;0.00;0.00;;;;;21.13;64.20;100565.56;5122729;27;46096;-64
2021/06/22 07:05:52;;;;;;;;;0.00;0.00;;;;;21.07;63.50;100569.81;5106838;27;45251;-65
2021/06/22 07:08:17;;;;;;;;;0.00;0.00;;;;;20.94;63.58;100559.84;5111063;27;45348;-66
2021/06/22 07:10:42;;;;;;;;;0.00;0.00;;;;;20.88;63.92;100569.47;5122256;27;45399;-64
2021/06/22 07:13:14;;;;;;;;;0.00;0.00;;;;;20.76;63.89;100570.16;5113746;27;45346;-64
2021/06/22 07:15:40;;;;;;;;;1.50;0.75;;;;;20.61;64.63;100571.03;5104072;27;45264;-64
2021/06/22 07:18:06;;;;;;;;;0.00;0.00;;;;;20.57;64.68;100574.22;5122588;27;45309;-65
2021/06/22 07:20:31;;;;;;;;;0.00;0.00;;;;;20.55;65.20;100578.91;5122707;27;45468;-63
2021/06/22 07:22:56;;;;;;;;;0.00;0.00;;;;;20.47;65.03;100578.03;5122439;27;45392;-63
2021/06/22 07:25:25;;;;;;;;;0.00;0.00;;;;;20.46;64.52;100570.22;5121584;27;45250;-64
2021/06/22 07:27:52;;;;;;;;;0.00;0.00;;;;;20.47;64.79;100578.03;5122006;27;45499;-63
2021/06/22 07:30:19;;;;;;;;;0.00;0.00;;;;;20.49;64.30;100577.81;5121863;27;45221;-63
2021/06/22 07:32:44;;;;;;;;;0.00;0.00;;;;;20.47;64.47;100572.69;5121839;27;46815;-64
2021/06/22 07:35:11;;;;;;;;;0.00;0.00;;;;;20.48;64.66;100571.66;5122208;27;45193;-63
2021/06/22 07:37:37;;;;;;;;;0.00;0.00;;;;;20.46;64.58;100571.03;5122668;27;45306;-64
2021/06/22 07:40:03;;;;;;;;;0.00;0.00;;;;;20.37;64.62;100563.34;5122162;27;45428;-64
2021/06/22 07:42:29;;;;;;;;;0.00;0.00;;;;;20.31;64.70;100572.91;5103202;27;48563;-63
2021/06/22 07:44:54;;;;;;;;;0.00;0.00;;;;;20.26;64.87;100561.97;5122035;27;45333;-63
2021/06/22 07:47:19;;;;;;;;;0.00;0.00;;;;;20.25;65.25;100560.31;5122243;27;45279;-63
2021/06/22 07:49:45;;;;;;;;;0.00;0.00;;;;;20.25;65.09;100565.66;5122514;27;45324;-63
2021/06/22 07:52:10;;;;;;;;;0.00;0.00;;;;;20.33;64.93;100570.06;5121622;27;47483;-64
2021/06/22 07:54:36;;;;;;;;;1.00;0.00;;;;;20.40;65.03;100571.78;5121776;27;45258;-64
2021/06/22 07:57:01;;;;;;;;;0.00;0.00;;;;;20.42;64.66;100577.75;5121798;27;45163;-64
2021/06/22 07:59:27;;;;;;;;;0.00;0.00;;;;;20.50;64.32;100582.16;5121501;27;45302;-64
2021/06/22 08:01:52;;;;;;;;;0.00;0.00;;;;;20.57;63.93;100580.41;5121414;27;46166;-64
2021/06/22 08:04:19;;;;;;;;;3.75;0.00;;;;;20.50;64.43;100590.16;5099802;27;45449;-64
2021/06/22 08:06:44;;;;;;;;;0.00;0.00;;;;;20.58;63.76;100575.91;5110516;27;45289;-63
2021/06/22 08:09:10;;;;;;;;;0.00;0.00;;;;;20.69;63.35;100578.91;5121748;27;45521;-63
2021/06/22 08:11:36;;;;;;;;;0.00;0.00;;;;;20.77;63.06;100574.47;5121338;27;45299;-64
2021/06/22 08:14:01;;;;;;;;;0.00;0.00;;;;;20.85;62.97;100587.69;5107849;27;45341;-64
2021/06/22 08:16:27;;;;;;;;;0.00;0.00;;;;;21.04;62.32;100586.22;5122190;27;45295;-63
2021/06/22 08:18:52;;;;;;;;;0.00;0.00;;;;;21.08;62.27;100596.34;5121977;27;45254;-63
2021/06/22 08:21:17;;;;;;;;;4.00;0.00;;;;;21.10;61.82;100596.97;5121368;27;46273;-64
2021/06/22 08:23:43;;;;;;;;;0.00;0.00;;;;;21.01;62.07;100592.75;5121779;27;45308;-64
2021/06/22 08:26:10;;;;;;;;;0.75;0.00;;;;;20.99;62.05;100600.16;5121604;27;45355;-63
2021/06/22 08:28:35;;;;;;;;;0.00;0.00;;;;;20.95;62.03;100601.56;5121644;27;45616;-64
2021/06/22 08:31:00;;;;;;;;;0.00;0.00;;;;;20.88;61.86;100605.97;5121523;27;45349;-63
2021/06/22 08:33:26;;;;;;;;;0.00;0.00;;;;;20.85;61.82;100612.53;5121460;27;45658;-63
2021/06/22 08:35:52;;;;;;;;;0.00;0.00;;;;;20.70;62.27;100601.09;5122068;27;45438;-64
2021/06/22 08:38:17;;;;;;;;;0.00;0.00;;;;;20.78;62.88;100610.81;5122049;27;45340;-63
2021/06/22 08:40:44;;;;;;;;;0.00;0.00;;;;;20.86;62.40;100611.53;5120703;27;47449;-64
2021/06/22 08:43:12;;;;;;;;;0.00;0.00;;;;;20.89;62.25;100621.00;5102016;27;45470;-64
2021/06/22 08:45:39;;;;;;;;;0.00;0.00;;;;;20.81;62.37;100619.25;5121089;27;45475;-64
2021/06/22 08:48:09;;;;;;;;;0.00;0.00;;;;;20.78;62.46;100622.31;5121156;27;45574;-64
2021/06/22 08:50:40;;;;;;;;;0.00;0.00;;;;;20.81;62.75;100623.78;5121136;27;45245;-63
2021/06/22 08:53:06;;;;;;;;;0.00;0.00;;;;;20.84;62.81;100623.38;5120732;27;45245;-64
2021/06/22 08:55:33;;;;;;;;;0.00;0.00;;;;;20.88;63.02;100630.00;5120848;27;45441;-64
2021/06/22 08:58:04;;;;;;;;;0.00;0.00;;;;;20.92;62.79;100627.78;5120310;27;45617;-64
2021/06/22 09:00:35;;;;;;;;;0.00;0.00;;;;;20.95;63.35;100624.72;5120204;27;46340;-64
2021/06/22 09:03:12;;;;;;;;;0.00;0.00;;;;;20.85;63.06;100635.75;5120812;27;45330;-64
2021/06/22 09:05:41;;;;;;;;;0.00;0.00;;;;;20.84;63.35;100626.06;5089457;27;45450;-63
2021/06/22 09:08:20;;;;;;;;;0.00;0.00;;;;;20.85;63.77;100630.41;5081962;27;45242;-63
2021/06/22 09:10:46;;;;;;;;;0.00;0.00;;;;;20.90;64.25;100626.13;5118149;27;45416;-63
2021/06/22 09:13:15;;;;;;;;;0.00;0.00;;;;;20.89;64.30;100631.69;5115788;27;45309;-63
2021/06/22 09:15:43;;;;;;;;;0.00;0.00;;;;;20.87;64.01;100626.50;5119556;27;45366;-64
2021/06/22 09:18:24;;;;;;;;;0.00;0.00;;;;;20.90;64.14;100633.31;5124725;27;45604;-63
2021/06/22 09:20:49;;;;;;;;;0.00;0.00;;;;;21.00;63.50;100633.84;5123897;27;46519;-65
2021/06/22 09:23:21;;;;;;;;;0.00;0.00;;;;;21.04;64.06;100637.78;5124481;27;45262;-63
2021/06/22 09:25:48;;;;;;;;;0.00;0.00;;;;;21.16;63.65;100646.09;5105409;27;45478;-63
2021/06/22 09:28:16;;;;;;;;;0.00;0.00;;;;;21.36;63.07;100638.28;5124001;27;45494;-63
2021/06/22 09:31:11;;;;;;;;;0.00;0.00;;;;;21.70;62.46;100642.06;5123926;27;45283;-62
2021/06/22 09:33:43;;;;;;;;;0.00;0.00;;;;;21.98;62.00;100646.56;5121784;27;45300;-65
2021/06/22 09:36:23;;;;;;;;;2.50;0.75;;;;;22.25;60.66;100635.03;5124418;27;45347;-64
2021/06/22 09:38:54;;;;;;;;;4.00;1.00;;;;;22.51;58.84;100649.56;5124247;27;45225;-65
2021/06/22 09:41:28;;;;;;;;;1.00;1.00;;;;;22.48;58.86;100640.09;5123730;27;45426;-64
2021/06/22 09:44:07;;;;;;;;;0.00;0.00;;;;;22.32;59.16;100638.56;5123837;27;45287;-65
2021/06/22 09:46:40;;;;;;;;;0.00;0.00;;;;;22.37;59.38;100635.28;5124067;27;45306;-64
2021/06/22 09:49:08;;;;;;;;;0.00;0.00;;;;;22.47;59.33;100642.97;5123969;27;45311;-66
2021/06/22 09:51:50;;;;;;;;;0.00;0.00;;;;;22.58;59.65;100646.91;5123586;27;45319;-66
2021/06/22 09:54:19;;;;;;;;;0.00;0.00;;;;;22.63;58.68;100650.63;5124023;27;45395;-65
2021/06/22 09:56:51;;;;;;;;;0.00;0.00;;;;;22.67;58.73;100659.09;5123889;27;45317;-65
2021/06/22 09:59:17;;;;;;;;;1.00;1.00;;;;;22.71;58.08;100661.16;5124004;27;45252;-65
2021/06/22 10:01:42;;;;;;;;;0.00;0.00;;;;;22.71;58.18;100666.50;5123090;27;46454;-65
2021/06/22 10:04:16;;;;;;;;;0.00;0.00;;;;;22.75;58.15;100661.59;5121901;27;45287;-62
2021/06/22 10:06:46;;;;;;;;;0.00;0.00;;;;;22.72;57.93;100661.97;5103112;27;45224;-67
2021/06/22 10:09:18;;;;;;;;;0.00;0.00;;;;;22.75;58.14;100674.97;5119280;27;45284;-66
2021/06/22 10:11:43;;;;;;;;;0.00;0.00;;;;;22.59;57.27;100676.16;5123081;27;45455;-67
2021/06/22 10:14:21;;;;;;;;;0.00;0.00;;;;;22.41;57.68;100667.84;5109522;27;45345;-66
2021/06/22 10:16:48;;;;;;;;;0.50;0.00;;;;;22.30;57.98;100674.56;5104819;27;45355;-67
2021/06/22 10:19:13;;;;;;;;;0.00;0.00;;;;;22.36;58.21;100675.66;5123091;27;45271;-66
2021/06/22 10:21:39;;;;;;;;;0.00;0.00;;;;;22.44;57.96;100678.13;5123066;27;45428;-66
2021/06/22 10:24:05;;;;;;;;;0.00;0.00;;;;;22.43;57.81;100679.16;5123191;27;45523;-65
2021/06/22 10:26:30;;;;;;;;;0.00;0.00;;;;;22.37;57.71;100688.81;5104666;27;45377;-66
2021/06/22 10:28:58;;;;;;;;;0.00;0.00;;;;;22.16;58.33;100692.38;5104264;27;45409;-66
2021/06/22 10:31:23;;;;;;;;;0.00;0.00;;;;;21.96;58.52;100694.91;5104508;27;45351;-66
2021/06/22 10:33:48;;;;;;;;;0.00;0.00;;;;;21.82;59.28;100694.00;5122482;27;45141;-66
2021/06/22 10:36:28;;;;;;;;;0.00;0.00;;;;;21.72;58.98;100693.50;5122956;27;45179;-65
2021/06/22 10:38:56;;;;;;;;;0.00;0.00;;;;;21.55;59.65;100700.94;5123305;27;45437;-64
2021/06/22 10:41:23;;;;;;;;;0.00;0.00;;;;;21.41;59.75;100709.84;5122358;27;45186;-67
2021/06/22 10:43:48;;;;;;;;;0.00;0.00;;;;;21.34;60.27;100709.78;5104143;27;45446;-68
2021/06/22 10:46:18;;;;;;;;;0.00;0.00;;;;;21.31;60.85;100718.97;5104209;27;45303;-67
2021/06/22 10:48:46;;;;;;;;;0.00;0.00;;;;;21.28;60.82;100719.38;5122979;27;45356;-68
2021/06/22 10:51:41;;;;;;;;;0.00;0.00;;;;;21.19;61.39;100728.53;5104039;27;48144;-67
2021/06/22 10:54:07;;;;;;;;;0.00;0.00;;;;;21.04;60.94;100731.25;5122611;27;45504;-67
2021/06/22 10:56:33;;;;;;;;;0.00;0.00;;;;;20.93;61.37;100741.56;5122755;27;45335;-67
2021/06/22 10:59:19;;;;;;;;;0.00;0.00;;;;;20.83;63.36;100744.53;5122980;27;45374;-73
2021/06/22 11:01:54;;;;;;;;;0.00;0.00;;;;;20.68;63.12;100748.03;5122621;27;46933;-78
2021/06/22 11:04:20;;;;;;;;;0.00;0.00;;;;;20.52;63.42;100761.56;5120003;27;45419;-68
2021/06/22 11:07:21;;;;;;;;;0.00;0.00;;;;;20.36;63.53;100769.72;5092701;27;45213;-70
2021/06/22 11:10:10;;;;;;;;;0.00;0.00;;;;;20.25;64.19;100771.81;5001391;28;45477;-68
2021/06/22 11:12:45;;;;;;;;;0.00;0.00;;;;;20.17;64.00;100781.72;5113011;27;46443;-72
2021/06/22 11:15:11;;;;;;;;;0.00;0.00;;;;;20.05;66.69;100792.03;5113550;27;45515;-70
2021/06/22 11:17:42;;;;;;;;;0.00;0.00;;;;;20.02;67.14;100800.34;5122036;27;45312;-78
2021/06/22 11:20:14;;;;;;;;;0.00;0.00;;;;;19.93;66.32;100796.94;5122778;27;45283;-72
2021/06/22 11:22:58;;;;;;;;;0.00;0.00;;;;;19.86;66.10;100799.47;5121975;27;46216;-72
2021/06/22 11:25:24;;;;;;;;;0.00;0.00;;;;;19.84;66.46;100803.34;5121645;27;45454;-71